createdAt,value
2022-11-21T00:00:11.782Z,47.3
2022-11-21T00:01:13.696Z,47.6
2022-11-21T00:02:15.713Z,47.8
2022-11-21T00:03:17.658Z,47.6
2022-11-21T00:04:19.519Z,47.7
2022-11-21T00:05:21.581Z,47.8
2022-11-21T00:06:23.444Z,47.9
2022-11-21T00:07:25.775Z,48
2022-11-21T00:08:27.678Z,48.1
2022-11-21T00:09:29.999Z,48
2022-11-21T00:10:32.618Z,48
2022-11-21T00:11:34.552Z,48.2
2022-11-21T00:12:36.440Z,48
2022-11-21T00:13:37.457Z,47.8
2022-11-21T00:14:39.658Z,47.8
2022-11-21T00:15:41.642Z,48
2022-11-21T00:16:43.650Z,48
2022-11-21T00:17:45.639Z,47.9
2022-11-21T00:18:47.659Z,48
2022-11-21T00:19:49.519Z,48
2022-11-21T00:20:51.596Z,48.2
2022-11-21T00:21:53.638Z,48.1
2022-11-21T00:22:55.661Z,47.9
2022-11-21T00:23:57.468Z,48
2022-11-21T00:24:59.655Z,47.8
2022-11-21T00:26:01.617Z,48.3
2022-11-21T00:27:03.654Z,48.2
2022-11-21T00:28:05.465Z,48.1
2022-11-21T00:29:07.717Z,48.3
2022-11-21T00:30:09.957Z,48
2022-11-21T00:31:11.760Z,48.4
2022-11-21T00:32:13.416Z,48.1
2022-11-21T00:33:14.418Z,48.2
2022-11-21T00:34:15.377Z,48.1
2022-11-21T00:35:16.416Z,48.3
2022-11-21T00:36:17.917Z,48.4
2022-11-21T00:37:19.376Z,48.9
2022-11-21T00:38:20.397Z,49.4
2022-11-21T00:39:21.516Z,49.5
2022-11-21T00:40:23.391Z,49.7
2022-11-21T00:41:24.556Z,49.9
2022-11-21T00:42:26.657Z,49.9
2022-11-21T00:43:28.476Z,49.7
2022-11-21T00:44:30.613Z,49.6
2022-11-21T00:45:32.605Z,49.6
2022-11-21T00:46:34.696Z,49.1
2022-11-21T00:47:36.419Z,49.1
2022-11-21T00:48:37.436Z,49.4
2022-11-21T00:49:38.496Z,48.7
2022-11-21T00:50:40.699Z,49.1
2022-11-21T00:51:42.396Z,49.1
2022-11-21T00:52:43.396Z,48.6
2022-11-21T00:53:44.456Z,49.2
2022-11-21T00:54:45.416Z,48.8
2022-11-21T00:55:46.478Z,48.9
2022-11-21T00:56:48.596Z,49
2022-11-21T00:57:50.560Z,48.6
2022-11-21T00:58:52.397Z,48.8
2022-11-21T00:59:53.501Z,48.7
2022-11-21T01:00:55.696Z,48.7
2022-11-21T01:01:57.532Z,48.9
2022-11-21T01:02:59.617Z,49
2022-11-21T01:04:01.557Z,49.2
2022-11-21T01:05:03.405Z,49.2
2022-11-21T01:06:04.617Z,48.8
2022-11-21T01:07:06.556Z,49
2022-11-21T01:08:08.541Z,49
2022-11-21T01:09:10.616Z,49.1
2022-11-21T01:10:12.580Z,49.2
2022-11-21T01:11:14.615Z,49.2
2022-11-21T01:12:16.644Z,49.4
2022-11-21T01:13:18.922Z,49.7
2022-11-21T01:14:20.608Z,49.6
2022-11-21T01:15:22.595Z,49.8
2022-11-21T01:16:24.598Z,49.9
2022-11-21T01:17:26.319Z,49.9
2022-11-21T01:18:27.460Z,50
2022-11-21T01:19:29.635Z,49.8
2022-11-21T01:20:31.675Z,49.6
2022-11-21T01:21:33.605Z,49.7
2022-11-21T01:22:35.616Z,49.7
2022-11-21T01:23:37.416Z,49.8
2022-11-21T01:24:38.424Z,49.8
2022-11-21T01:25:39.615Z,49.7
2022-11-21T01:26:41.497Z,49.5
2022-11-21T01:27:43.396Z,49.3
2022-11-21T01:28:44.449Z,49.2
2022-11-21T01:29:45.456Z,49.2
2022-11-21T01:30:46.457Z,49.2
2022-11-21T01:31:47.496Z,49.4
2022-11-21T01:32:50.000Z,49.3
2022-11-21T01:33:51.616Z,49.2
2022-11-21T01:34:53.439Z,49
2022-11-21T01:35:54.636Z,48.9
2022-11-21T01:36:56.841Z,48.8
2022-11-21T01:37:58.596Z,49
2022-11-21T01:39:00.596Z,49.2
2022-11-21T01:40:02.496Z,49.3
2022-11-21T01:41:04.636Z,49.3
2022-11-21T01:42:06.425Z,49.3
2022-11-21T01:43:07.536Z,49.5
2022-11-21T01:44:09.406Z,49.7
2022-11-21T01:45:10.857Z,49.7
2022-11-21T01:46:12.736Z,49.8
2022-11-21T01:47:14.677Z,49.9
2022-11-21T01:48:16.436Z,49.8
2022-11-21T01:49:17.465Z,50
2022-11-21T01:50:18.372Z,50.1
2022-11-21T01:51:19.439Z,49.7
2022-11-21T01:52:20.502Z,49.3
2022-11-21T01:53:22.656Z,49.8
2022-11-21T01:54:24.611Z,49.8
2022-11-21T01:55:26.697Z,49.8
2022-11-21T01:56:28.579Z,49.9
2022-11-21T01:57:30.640Z,49.9
2022-11-21T01:58:32.605Z,49.7
2022-11-21T01:59:34.767Z,49.8
2022-11-21T02:00:36.663Z,49.5
2022-11-21T02:01:38.698Z,49.4
2022-11-21T02:02:40.756Z,49.4
2022-11-21T02:06:53.540Z,49.5
2022-11-21T02:07:55.613Z,49.7
2022-11-21T02:08:57.554Z,49.7
2022-11-21T02:09:59.632Z,49.6
2022-11-21T02:11:01.633Z,49.5
2022-11-21T02:12:03.493Z,49.4
2022-11-21T02:13:04.458Z,49.1
2022-11-21T02:14:05.413Z,48.8
2022-11-21T02:15:06.657Z,48.6
2022-11-21T02:16:08.420Z,48.4
2022-11-21T02:17:09.453Z,48.2
2022-11-21T02:18:10.434Z,48.2
2022-11-21T02:19:11.434Z,48.3
2022-11-21T02:20:12.452Z,48.4
2022-11-21T02:21:13.453Z,48.6
2022-11-21T02:22:14.473Z,48.6
2022-11-21T02:23:15.433Z,48.7
2022-11-21T02:24:16.432Z,48.7
2022-11-21T02:25:17.412Z,48.8
2022-11-21T02:26:18.458Z,49
2022-11-21T02:27:19.472Z,49
2022-11-21T02:28:20.434Z,48.9
2022-11-21T02:29:21.513Z,48.9
2022-11-21T02:30:23.436Z,48.9
2022-11-21T02:31:24.512Z,48.8
2022-11-21T02:32:26.674Z,48.9
2022-11-21T02:33:28.642Z,49.1
2022-11-21T02:34:30.743Z,49.2
2022-11-21T02:35:32.582Z,49.5
2022-11-21T02:36:34.516Z,49.6
2022-11-21T02:37:35.495Z,49.6
2022-11-21T02:38:36.499Z,49.6
2022-11-21T02:39:37.495Z,49.7
2022-11-21T02:40:38.444Z,49.7
2022-11-21T02:41:39.514Z,49.6
2022-11-21T02:42:41.694Z,49.5
2022-11-21T02:43:43.933Z,49.4
2022-11-21T02:44:45.593Z,49.2
2022-11-21T02:45:47.599Z,49.1
2022-11-21T02:46:49.633Z,49.3
2022-11-21T02:47:51.657Z,49.4
2022-11-21T02:48:53.694Z,49.7
2022-11-21T02:49:55.613Z,49.8
2022-11-21T02:50:57.443Z,49.7
2022-11-21T02:51:58.873Z,49.8
2022-11-21T02:53:00.479Z,50
2022-11-21T02:54:01.494Z,50
2022-11-21T02:55:02.493Z,50
2022-11-21T02:56:03.453Z,49.6
2022-11-21T02:57:04.487Z,49.1
2022-11-21T02:58:05.820Z,49
2022-11-21T02:59:06.642Z,49.2
2022-11-21T03:00:08.573Z,49.4
2022-11-21T03:01:10.681Z,49.5
2022-11-21T03:02:12.653Z,49.6
2022-11-21T03:03:14.632Z,49.6
2022-11-21T03:04:16.653Z,49.5
2022-11-21T03:05:18.463Z,49.8
2022-11-21T03:06:19.443Z,49.9
2022-11-21T03:07:20.485Z,50.2
2022-11-21T03:08:21.692Z,49.8
2022-11-21T03:09:23.488Z,50.3
2022-11-21T03:10:24.447Z,50.5
2022-11-21T03:11:25.574Z,50.6
2022-11-21T03:12:27.673Z,50.6
2022-11-21T03:13:29.673Z,50.3
2022-11-21T03:14:31.472Z,50.3
2022-11-21T03:15:32.453Z,50
2022-11-21T03:16:33.479Z,49.8
2022-11-21T03:17:34.461Z,49.4
2022-11-21T03:18:35.533Z,49.1
2022-11-21T03:19:37.494Z,49.2
2022-11-21T03:20:38.453Z,49.3
2022-11-21T03:21:39.500Z,49.2
2022-11-21T03:22:41.493Z,48.7
2022-11-21T03:23:42.495Z,48.7
2022-11-21T03:24:43.592Z,48.8
2022-11-21T03:25:45.672Z,48.6
2022-11-21T03:26:47.633Z,48.7
2022-11-21T03:27:49.532Z,49.3
2022-11-21T03:28:51.592Z,49.3
2022-11-21T03:29:53.434Z,49
2022-11-21T03:30:54.467Z,49
2022-11-21T03:31:57.018Z,48.9
2022-11-21T03:32:58.583Z,48.7
2022-11-21T03:34:00.753Z,48.6
2022-11-21T03:35:02.705Z,48.5
2022-11-21T03:36:04.513Z,48.7
2022-11-21T03:37:05.533Z,48.9
2022-11-21T03:38:06.578Z,49.3
2022-11-21T03:39:08.552Z,49.5
2022-11-21T03:40:10.634Z,49.8
2022-11-21T03:41:12.614Z,49.8
2022-11-21T03:42:14.673Z,50.1
2022-11-21T03:43:16.693Z,50.4
2022-11-21T03:44:18.673Z,50.7
2022-11-21T03:45:20.928Z,50.9
2022-11-21T03:46:22.573Z,51.2
2022-11-21T03:47:24.589Z,51.4
2022-11-21T03:48:26.694Z,51.5
2022-11-21T03:49:28.732Z,50.9
2022-11-21T03:50:30.737Z,51.3
2022-11-21T03:51:32.614Z,51.2
2022-11-21T03:52:34.627Z,51.3
2022-11-21T03:53:36.442Z,51.4
2022-11-21T03:54:37.512Z,51.5
2022-11-21T03:55:38.613Z,51.8
2022-11-21T03:56:40.614Z,51.7
2022-11-21T03:57:42.673Z,51.5
2022-11-21T03:58:44.672Z,51.2
2022-11-21T03:59:46.557Z,50.9
2022-11-21T04:00:48.693Z,51
2022-11-21T04:01:50.764Z,51.1
2022-11-21T04:02:52.938Z,51.3
2022-11-21T04:03:54.543Z,51
2022-11-21T04:04:56.684Z,51.2
2022-11-21T04:05:58.673Z,51.3
2022-11-21T04:07:00.727Z,51.1
2022-11-21T04:08:02.647Z,51.3
2022-11-21T04:09:04.716Z,51.4
2022-11-21T04:10:06.832Z,50.9
2022-11-21T04:11:08.713Z,51.2
2022-11-21T04:12:10.732Z,50.9
2022-11-21T04:13:12.648Z,50.8
2022-11-21T04:14:14.652Z,51.4
2022-11-21T04:15:16.647Z,51.6
2022-11-21T04:16:18.714Z,51.7
2022-11-21T04:17:20.497Z,51.6
2022-11-21T04:18:21.660Z,51.7
2022-11-21T04:19:23.573Z,51.9
2022-11-21T04:20:25.654Z,51.8
2022-11-21T04:21:27.852Z,52
2022-11-21T04:22:31.312Z,51.7
2022-11-21T04:23:32.672Z,51.8
2022-11-21T04:24:34.613Z,51.7
2022-11-21T04:25:36.561Z,51.5
2022-11-21T04:26:37.472Z,51.4
2022-11-21T04:27:38.520Z,51.3
2022-11-21T04:28:39.532Z,51.2
2022-11-21T04:29:40.452Z,51.5
2022-11-21T04:30:41.454Z,51.5
2022-11-21T04:31:42.513Z,51.8
2022-11-21T04:32:43.535Z,52.2
2022-11-21T04:33:44.637Z,51.5
2022-11-21T04:34:46.733Z,51.6
2022-11-21T04:35:48.533Z,51.6
2022-11-21T04:36:49.619Z,51.7
2022-11-21T04:37:51.474Z,52.1
2022-11-21T04:38:52.493Z,52.5
2022-11-21T04:39:53.994Z,52.9
2022-11-21T04:40:55.713Z,53.3
2022-11-21T04:41:57.514Z,53.8
2022-11-21T04:42:58.713Z,54.3
2022-11-21T04:44:00.576Z,54.3
2022-11-21T04:45:02.776Z,54.3
2022-11-21T04:46:04.535Z,54.1
2022-11-21T04:47:05.924Z,53.8
2022-11-21T04:48:06.546Z,53.7
2022-11-21T04:49:08.063Z,53.8
2022-11-21T04:50:10.054Z,53.6
2022-11-21T04:51:12.113Z,52.7
2022-11-21T04:52:13.545Z,52.8
2022-11-21T04:53:15.653Z,53.2
2022-11-21T04:54:17.552Z,53.3
2022-11-21T04:55:18.572Z,53.3
2022-11-21T04:56:19.439Z,53.5
2022-11-21T04:57:20.512Z,53.3
2022-11-21T04:58:21.472Z,53.5
2022-11-21T04:59:22.493Z,53.9
2022-11-21T05:00:24.504Z,53.9
2022-11-21T05:01:25.725Z,53.8
2022-11-21T05:02:27.733Z,53.7
2022-11-21T05:03:29.674Z,53.7
2022-11-21T05:04:31.778Z,53.5
2022-11-21T05:05:33.632Z,53.3
2022-11-21T05:06:35.693Z,53.3
2022-11-21T05:07:37.572Z,53.3
2022-11-21T05:08:38.538Z,53.1
2022-11-21T05:09:39.495Z,53.2
2022-11-21T05:10:40.652Z,53.5
2022-11-21T05:11:42.536Z,53.6
2022-11-21T05:12:43.494Z,53.6
2022-11-21T05:13:44.452Z,53.3
2022-11-21T05:14:45.522Z,53.5
2022-11-21T05:15:46.513Z,53.6
2022-11-21T05:16:47.613Z,53.8
2022-11-21T05:17:49.534Z,53.6
2022-11-21T05:18:50.493Z,53.6
2022-11-21T05:19:51.546Z,53.5
2022-11-21T05:20:52.555Z,53.3
2022-11-21T05:21:53.534Z,53.2
2022-11-21T05:22:54.477Z,53.1
2022-11-21T05:23:55.670Z,52.9
2022-11-21T05:24:58.014Z,53.2
2022-11-21T05:25:59.516Z,53.4
2022-11-21T05:27:00.632Z,53.5
2022-11-21T05:28:03.454Z,53.3
2022-11-21T05:29:04.581Z,53.4
2022-11-21T05:30:06.533Z,53.4
2022-11-21T05:31:07.637Z,53.3
2022-11-21T05:32:10.834Z,53
2022-11-21T05:33:12.953Z,53
2022-11-21T05:34:14.653Z,53
2022-11-21T05:35:16.588Z,53
2022-11-21T05:36:17.602Z,53.3
2022-11-21T05:37:19.693Z,52.7
2022-11-21T05:38:21.534Z,53.1
2022-11-21T05:39:22.516Z,52.9
2022-11-21T05:40:23.473Z,52.7
2022-11-21T05:41:24.620Z,52.7
2022-11-21T05:42:26.733Z,52.8
2022-11-21T05:43:29.220Z,52.8
2022-11-21T05:44:30.978Z,52.7
2022-11-21T05:45:32.530Z,52.6
2022-11-21T05:46:33.614Z,52.6
2022-11-21T05:47:35.739Z,52.4
2022-11-21T05:48:37.535Z,52.4
2022-11-21T05:49:38.534Z,52.5
2022-11-21T05:50:39.978Z,52.9
2022-11-21T05:51:41.493Z,53.2
2022-11-21T05:52:42.513Z,53.4
2022-11-21T05:53:43.513Z,53.7
2022-11-21T05:54:46.163Z,53.9
2022-11-21T05:55:46.629Z,53.7
2022-11-21T05:56:48.868Z,53.5
2022-11-21T05:57:50.653Z,53.7
2022-11-21T05:58:52.533Z,53.7
2022-11-21T05:59:53.573Z,53.6
2022-11-21T06:00:59.510Z,53.9
2022-11-21T06:01:56.533Z,54.1
2022-11-21T06:02:58.299Z,54.3
2022-11-21T06:03:59.653Z,54.2
2022-11-21T06:05:01.713Z,54.5
2022-11-21T06:06:03.747Z,54.7
2022-11-21T06:07:06.330Z,55
2022-11-21T06:08:08.033Z,54.9
2022-11-21T06:09:09.533Z,54.7
2022-11-21T06:10:10.596Z,54
2022-11-21T06:11:12.653Z,53.4
2022-11-21T06:12:14.611Z,53.4
2022-11-21T06:13:16.665Z,53.6
2022-11-21T06:14:18.715Z,54
2022-11-21T06:15:20.733Z,54.2
2022-11-21T06:16:22.686Z,53.9
2022-11-21T06:17:24.693Z,53.8
2022-11-21T06:18:26.788Z,53.8
2022-11-21T06:19:28.814Z,53.4
2022-11-21T06:20:30.554Z,53.2
2022-11-21T06:21:32.417Z,53.2
2022-11-21T06:22:33.554Z,53.2
2022-11-21T06:23:34.493Z,53.5
2022-11-21T06:24:35.621Z,53.6
2022-11-21T06:25:37.574Z,53.5
2022-11-21T06:26:38.657Z,53.2
2022-11-21T06:27:40.796Z,53.2
2022-11-21T06:28:43.073Z,53.2
2022-11-21T06:29:44.753Z,53.2
2022-11-21T06:30:46.816Z,53.4
2022-11-21T06:31:48.773Z,53.4
2022-11-21T06:32:50.739Z,53.6
2022-11-21T06:33:52.576Z,53.4
2022-11-21T06:34:53.574Z,53.3
2022-11-21T06:35:54.715Z,53.2
2022-11-21T06:36:56.656Z,53.1
2022-11-21T06:37:58.634Z,52.7
2022-11-21T06:39:00.688Z,52.9
2022-11-21T06:40:02.773Z,53.2
2022-11-21T06:41:05.053Z,53.5
2022-11-21T06:42:07.175Z,53.9
2022-11-21T06:43:08.537Z,53.9
2022-11-21T06:44:09.536Z,53.5
2022-11-21T06:45:10.587Z,53.2
2022-11-21T06:46:12.753Z,53.1
2022-11-21T06:47:16.053Z,53.1
2022-11-21T06:48:17.735Z,53.4
2022-11-21T06:49:19.864Z,53.6
2022-11-21T06:50:21.717Z,53.5
2022-11-21T06:51:24.215Z,53.3
2022-11-21T06:52:25.665Z,53.4
2022-11-21T06:53:27.773Z,53.6
2022-11-21T06:54:30.279Z,53.4
2022-11-21T06:55:31.915Z,53.1
2022-11-21T06:56:33.733Z,53
2022-11-21T06:57:35.496Z,53
2022-11-21T06:58:36.713Z,53.1
2022-11-21T06:59:39.633Z,53.1
2022-11-21T07:00:41.820Z,53.4
2022-11-21T07:01:43.819Z,53.5
2022-11-21T07:02:45.565Z,53.5
2022-11-21T07:03:46.690Z,53.3
2022-11-21T07:04:48.764Z,53.3
2022-11-21T07:05:50.894Z,53.4
2022-11-21T07:06:52.565Z,53.5
2022-11-21T07:07:53.640Z,53.9
2022-11-21T07:09:57.138Z,53.8
2022-11-21T07:11:23.443Z,53.3
2022-11-21T07:12:00.773Z,53.5
2022-11-21T07:13:02.713Z,53.9
2022-11-21T07:14:08.924Z,54.3
2022-11-21T07:15:06.794Z,54.3
2022-11-21T07:16:08.754Z,54.3
2022-11-21T07:17:10.765Z,54.4
2022-11-21T07:18:12.674Z,54.4
2022-11-21T07:19:14.714Z,54.3
2022-11-21T07:20:16.733Z,54.4
2022-11-21T07:21:18.753Z,53.6
2022-11-21T07:22:20.775Z,53.5
2022-11-21T07:23:22.596Z,52.7
2022-11-21T07:24:23.585Z,52.9
2022-11-21T07:25:24.604Z,52.9
2022-11-21T07:26:25.657Z,53.2
2022-11-21T07:27:27.874Z,53.4
2022-11-21T07:28:29.756Z,53.3
2022-11-21T07:29:31.617Z,53.3
2022-11-21T07:30:32.735Z,53.1
2022-11-21T07:31:34.794Z,52.8
2022-11-21T07:32:36.554Z,52.3
2022-11-21T07:33:37.692Z,52
2022-11-21T07:34:39.583Z,51.8
2022-11-21T07:35:40.867Z,51.6
2022-11-21T07:36:42.754Z,51.3
2022-11-21T07:37:44.833Z,51.7
2022-11-21T07:38:46.707Z,51.7
2022-11-21T07:39:48.819Z,51.6
2022-11-21T07:40:51.235Z,51.9
2022-11-21T07:41:52.636Z,51.8
2022-11-21T07:42:53.595Z,51.7
2022-11-21T07:43:54.692Z,51.8
2022-11-21T07:44:56.665Z,52.2
2022-11-21T07:45:59.355Z,52.5
2022-11-21T07:47:00.561Z,52.3
2022-11-21T07:48:02.735Z,51.9
2022-11-21T07:49:04.847Z,51.6
2022-11-21T07:50:06.793Z,51.6
2022-11-21T07:51:08.636Z,51.6
2022-11-21T07:52:10.846Z,51.9
2022-11-21T07:53:13.458Z,52.1
2022-11-21T07:54:16.063Z,52.1
2022-11-21T07:55:17.776Z,52.1
2022-11-21T07:56:19.742Z,52.4
2022-11-21T07:57:21.714Z,52.5
2022-11-21T07:58:23.854Z,52.4
2022-11-21T07:59:25.847Z,52.2
2022-11-21T08:00:27.969Z,51.9
2022-11-21T08:01:29.845Z,51.8
2022-11-21T08:02:31.993Z,51.4
2022-11-21T08:03:33.859Z,51.1
2022-11-21T08:04:36.214Z,50.7
2022-11-21T08:05:37.869Z,50.6
2022-11-21T08:06:39.774Z,50.6
2022-11-21T08:07:41.894Z,50.6
2022-11-21T08:08:43.835Z,50.7
2022-11-21T08:09:45.817Z,50.7
2022-11-21T08:10:47.793Z,50.6
2022-11-21T08:11:50.191Z,50.4
2022-11-21T08:12:51.774Z,50.5
2022-11-21T08:13:53.776Z,50.2
2022-11-21T08:14:56.042Z,50.3
2022-11-21T08:15:57.774Z,50.5
2022-11-21T08:16:59.714Z,50.4
2022-11-21T08:18:01.687Z,50
2022-11-21T08:19:03.740Z,49.8
2022-11-21T08:20:05.887Z,49.8
2022-11-21T08:21:07.962Z,49.8
2022-11-21T08:22:09.654Z,49.7
2022-11-21T08:23:10.753Z,50.2
2022-11-21T08:24:12.795Z,50.4
2022-11-21T08:25:14.838Z,50.1
2022-11-21T08:26:16.617Z,50.6
2022-11-21T08:27:17.855Z,50.8
2022-11-21T08:28:19.712Z,50.9
2022-11-21T08:29:21.675Z,50.5
2022-11-21T08:30:23.735Z,50.3
2022-11-21T08:31:25.680Z,50.1
2022-11-21T08:32:28.059Z,49.9
2022-11-21T08:33:29.716Z,49.6
2022-11-21T08:34:31.793Z,49.2
2022-11-21T08:35:33.779Z,49.3
2022-11-21T08:36:35.594Z,49.2
2022-11-21T08:37:37.674Z,49.1
2022-11-21T08:38:39.655Z,49.1
2022-11-21T08:39:40.696Z,49.1
2022-11-21T08:40:42.739Z,49.1
2022-11-21T08:41:44.593Z,49
2022-11-21T08:42:46.175Z,48.9
2022-11-21T08:43:47.809Z,48.9
2022-11-21T08:44:49.774Z,49.2
2022-11-21T08:45:52.054Z,49.6
2022-11-21T08:46:53.622Z,49.7
2022-11-21T08:47:54.627Z,49.6
2022-11-21T08:48:55.694Z,49.6
2022-11-21T08:49:57.734Z,49.9
2022-11-21T08:50:59.902Z,50
2022-11-21T08:52:01.795Z,49.8
2022-11-21T08:53:04.037Z,50
2022-11-21T08:54:05.616Z,50.1
2022-11-21T08:55:06.614Z,50.3
2022-11-21T08:56:07.890Z,50.6
2022-11-21T08:57:09.846Z,50.6
2022-11-21T08:58:11.875Z,50.5
2022-11-21T08:59:13.596Z,50.4
2022-11-21T09:00:14.678Z,50.3
2022-11-21T09:01:16.377Z,50.2
2022-11-21T09:02:18.736Z,50.2
2022-11-21T09:03:23.675Z,50.1
2022-11-21T09:04:22.641Z,50
2022-11-21T09:05:23.663Z,49.7
2022-11-21T09:06:24.738Z,49.6
2022-11-21T09:07:26.824Z,49.8
2022-11-21T09:08:28.911Z,49.7
2022-11-21T09:09:30.835Z,49.1
2022-11-21T09:10:32.814Z,49.3
2022-11-21T09:11:34.878Z,49.5
2022-11-21T09:12:36.720Z,49.3
2022-11-21T09:13:38.935Z,49.4
2022-11-21T09:14:40.694Z,49.4
2022-11-21T09:15:42.777Z,49.5
2022-11-21T09:16:44.838Z,49.4
2022-11-21T09:17:46.576Z,49.2
2022-11-21T09:18:47.714Z,49.2
2022-11-21T09:19:49.874Z,49.2
2022-11-21T09:20:51.726Z,49.4
2022-11-21T09:21:53.815Z,49.3
2022-11-21T09:22:55.733Z,49.2
2022-11-21T09:23:57.714Z,48.9
2022-11-21T09:24:59.778Z,48.5
2022-11-21T09:26:01.761Z,48.9
2022-11-21T09:27:03.821Z,48.9
2022-11-21T09:28:05.822Z,49
2022-11-21T09:29:07.718Z,49.2
2022-11-21T09:30:09.812Z,49.1
2022-11-21T09:31:11.768Z,48.8
2022-11-21T09:32:13.613Z,48.7
2022-11-21T09:33:14.776Z,48.9
2022-11-21T09:34:16.790Z,49.1
2022-11-21T09:35:18.657Z,49.3
2022-11-21T09:36:19.857Z,49.4
2022-11-21T09:37:21.619Z,49.5
2022-11-21T09:38:24.303Z,49.3
2022-11-21T09:39:23.601Z,49.8
2022-11-21T09:40:24.754Z,50
2022-11-21T09:41:26.675Z,49.9
2022-11-21T09:42:28.939Z,49.6
2022-11-21T09:43:30.855Z,49.6
2022-11-21T09:44:32.708Z,49.5
2022-11-21T09:45:34.818Z,49.7
2022-11-21T09:46:36.699Z,49.7
2022-11-21T09:47:38.679Z,49.9
2022-11-21T09:48:40.039Z,49.9
2022-11-21T09:49:41.728Z,50.3
2022-11-21T09:50:43.759Z,50.4
2022-11-21T09:51:46.099Z,49.7
2022-11-21T09:52:47.825Z,49.8
2022-11-21T09:53:49.891Z,49.6
2022-11-21T09:54:51.764Z,49.3
2022-11-21T09:55:54.074Z,49.2
2022-11-21T09:56:55.654Z,49.1
2022-11-21T09:57:56.759Z,49.1
2022-11-21T09:58:59.193Z,48.9
2022-11-21T10:00:00.917Z,48.7
2022-11-21T10:01:03.047Z,48.8
2022-11-21T10:02:04.950Z,49
2022-11-21T10:04:39.913Z,49.7
2022-11-21T10:05:41.887Z,50.4
2022-11-21T10:06:43.899Z,50.7
2022-11-21T10:07:47.249Z,50.7
2022-11-21T10:08:48.172Z,50.3
2022-11-21T10:09:49.914Z,50.3
2022-11-21T10:10:51.916Z,50.3
2022-11-21T10:11:53.914Z,49.9
2022-11-21T10:12:55.758Z,49.5
2022-11-21T10:13:57.782Z,49.8
2022-11-21T10:14:59.715Z,50.4
2022-11-21T10:16:00.616Z,50.8
2022-11-21T10:17:01.706Z,50.8
2022-11-21T10:18:02.934Z,50.4
2022-11-21T10:19:04.913Z,50.3
2022-11-21T10:20:06.777Z,50.1
2022-11-21T10:21:08.741Z,49.9
2022-11-21T10:22:10.695Z,50.1
2022-11-21T10:23:11.798Z,50.4
2022-11-21T10:24:13.893Z,50.6
2022-11-21T10:25:15.955Z,50.5
2022-11-21T10:26:17.795Z,50.3
2022-11-21T10:27:19.873Z,50.3
2022-11-21T10:28:21.755Z,50.2
2022-11-21T10:29:23.741Z,50
2022-11-21T10:30:27.827Z,49.8
2022-11-21T10:31:26.838Z,49.7
2022-11-21T10:32:28.977Z,49.6
2022-11-21T10:33:30.842Z,49.3
2022-11-21T10:34:32.779Z,49
2022-11-21T10:35:34.955Z,48.7
2022-11-21T10:36:36.793Z,48.3
2022-11-21T10:37:38.795Z,48.4
2022-11-21T10:38:40.696Z,48.4
2022-11-21T10:39:41.743Z,48.5
2022-11-21T10:40:43.993Z,48.4
2022-11-21T10:41:45.682Z,48.4
2022-11-21T10:42:46.715Z,48.5
2022-11-21T10:43:47.896Z,48.6
2022-11-21T10:44:49.844Z,48.5
2022-11-21T10:45:51.914Z,48.4
2022-11-21T10:46:53.733Z,48.2
2022-11-21T10:47:55.901Z,48
2022-11-21T10:48:58.057Z,47.9
2022-11-21T10:49:59.833Z,47.8
2022-11-21T10:51:01.934Z,47.7
2022-11-21T10:52:03.876Z,47.6
2022-11-21T10:53:05.720Z,47.7
2022-11-21T10:54:08.161Z,47.5
2022-11-21T10:55:07.759Z,47.6
2022-11-21T10:56:09.639Z,47.7
2022-11-21T10:57:10.653Z,47.7
2022-11-21T10:58:11.674Z,47.9
2022-11-21T10:59:12.854Z,47.9
2022-11-21T11:00:14.966Z,48.3
2022-11-21T11:01:17.022Z,48.5
2022-11-21T11:02:18.894Z,48.5
2022-11-21T11:03:20.778Z,48.5
2022-11-21T11:04:32.262Z,48.4
2022-11-21T11:05:24.755Z,48.5
2022-11-21T11:06:26.636Z,48.4
2022-11-21T11:07:27.985Z,48.4
2022-11-21T11:08:29.882Z,48.5
2022-11-21T11:09:31.826Z,48.5
2022-11-21T11:10:33.892Z,48.5
2022-11-21T11:11:35.853Z,48.5
2022-11-21T11:12:37.756Z,48.5
2022-11-21T11:13:47.854Z,48.5
2022-11-21T11:14:41.857Z,48.5
2022-11-21T11:15:43.999Z,48.5
2022-11-21T11:16:45.638Z,48.6
2022-11-21T11:17:47.978Z,48.5
2022-11-21T11:18:47.776Z,48.7
2022-11-21T11:19:49.874Z,48.7
2022-11-21T11:20:51.833Z,48.6
2022-11-21T11:21:53.713Z,48.3
2022-11-21T11:22:54.763Z,48.3
2022-11-21T11:23:56.678Z,48.2
2022-11-21T11:25:00.637Z,47.9
2022-11-21T11:26:00.412Z,48.1
2022-11-21T11:27:01.876Z,48.1
2022-11-21T11:28:03.856Z,47.7
2022-11-21T11:29:05.974Z,47.8
2022-11-21T11:30:07.933Z,47.9
2022-11-21T11:31:09.680Z,48
2022-11-21T11:32:10.773Z,47.9
2022-11-21T11:33:12.814Z,47.9
2022-11-21T11:34:14.934Z,47.6
2022-11-21T11:35:16.881Z,47.4
2022-11-21T11:36:18.892Z,47.4
2022-11-21T11:37:20.952Z,47.5
2022-11-21T11:38:22.674Z,47.6
2022-11-21T11:39:23.722Z,47.7
2022-11-21T11:40:24.791Z,47.6
2022-11-21T11:41:26.795Z,48.1
2022-11-21T11:42:29.052Z,48.1
2022-11-21T11:43:30.913Z,47.9
2022-11-21T11:44:32.796Z,47.8
2022-11-21T11:45:35.397Z,46.9
2022-11-21T11:46:36.877Z,47.3
2022-11-21T11:47:38.945Z,47.4
2022-11-21T11:49:03.579Z,47.5
2022-11-21T11:49:43.299Z,47.4
2022-11-21T11:50:44.964Z,47.3
2022-11-21T11:51:47.274Z,47.2
2022-11-21T11:52:49.175Z,47.6
2022-11-21T11:53:51.193Z,47.7
2022-11-21T11:54:52.925Z,48.3
2022-11-21T11:55:54.857Z,48.8
2022-11-21T11:56:56.679Z,49.3
2022-11-21T11:57:57.783Z,49.4
2022-11-21T11:59:00.404Z,50
2022-11-21T12:00:01.736Z,50.8
2022-11-21T12:01:02.786Z,51.6
2022-11-21T12:02:08.977Z,51.8
2022-11-21T12:03:06.898Z,51.6
2022-11-21T12:04:09.015Z,51.4
2022-11-21T12:05:10.813Z,51.3
2022-11-21T12:06:12.950Z,51.5
2022-11-21T12:09:19.028Z,52.5
2022-11-21T12:10:21.040Z,52.4
2022-11-21T12:11:25.134Z,52.3
2022-11-21T12:12:24.754Z,52.2
2022-11-21T12:13:25.816Z,52.5
2022-11-21T12:14:28.118Z,52.9
2022-11-21T12:15:29.954Z,53.2
2022-11-21T12:16:31.938Z,53.4
2022-11-21T12:17:34.006Z,53.2
2022-11-21T12:18:35.897Z,52.7
2022-11-21T12:19:37.914Z,52.1
2022-11-21T12:20:39.794Z,51.7
2022-11-21T12:21:41.793Z,51.7
2022-11-21T12:22:43.940Z,51.6
2022-11-21T12:23:47.182Z,51.5
2022-11-21T12:24:48.202Z,52.2
2022-11-21T12:25:50.005Z,52.6
2022-11-21T12:26:51.904Z,52.8
2022-11-21T12:27:53.814Z,52.3
2022-11-21T12:28:55.954Z,52.6
2022-11-21T12:29:57.949Z,52.9
2022-11-21T12:31:00.451Z,53
2022-11-21T12:32:01.752Z,52.2
2022-11-21T12:33:08.044Z,52.5
2022-11-21T12:34:04.775Z,52.8
2022-11-21T12:35:07.056Z,53.2
2022-11-21T12:36:17.684Z,53.4
2022-11-21T12:37:10.794Z,53.5
2022-11-21T12:38:13.034Z,53.5
2022-11-21T12:39:14.953Z,53.8
2022-11-21T12:40:17.033Z,53.9
2022-11-21T12:41:19.012Z,53.6
2022-11-21T12:42:20.853Z,53.6
2022-11-21T12:43:22.853Z,53.3
2022-11-21T12:44:24.830Z,53.2
2022-11-21T12:45:26.882Z,53.3
2022-11-21T12:46:29.081Z,53.3
2022-11-21T12:47:30.961Z,53.2
2022-11-21T12:48:33.073Z,53.1
2022-11-21T12:49:35.300Z,52.8
2022-11-21T12:50:37.193Z,52.7
2022-11-21T12:51:38.844Z,52.5
2022-11-21T12:52:40.818Z,52.3
2022-11-21T12:53:42.927Z,52.8
2022-11-21T12:54:44.854Z,53.2
2022-11-21T12:55:47.992Z,53.2
2022-11-21T12:56:49.572Z,53.5
2022-11-21T12:57:50.877Z,53.5
2022-11-21T12:58:52.932Z,53.9
2022-11-21T12:59:54.914Z,53.9
2022-11-21T13:00:56.986Z,53
2022-11-21T13:01:58.956Z,53.7
2022-11-21T13:03:00.947Z,53.9
2022-11-21T13:04:04.132Z,53.5
2022-11-21T13:05:05.980Z,53.3
2022-11-21T13:06:08.023Z,53.6
2022-11-21T13:07:10.006Z,53.8
2022-11-21T13:08:12.298Z,53.8
2022-11-21T13:09:13.945Z,53.7
2022-11-21T13:10:15.910Z,53.7
2022-11-21T13:11:17.861Z,53.8
2022-11-21T13:12:20.047Z,53.9
2022-11-21T13:13:21.808Z,53.9
2022-11-21T13:14:23.894Z,53.9
2022-11-21T13:15:27.006Z,53.9
2022-11-21T13:16:29.021Z,53.7
2022-11-21T13:17:30.912Z,53.5
2022-11-21T13:18:32.899Z,53.3
2022-11-21T13:19:34.969Z,53
2022-11-21T13:20:36.869Z,52.8
2022-11-21T13:21:40.785Z,52.4
2022-11-21T13:22:39.801Z,52.6
2022-11-21T13:23:40.720Z,52.8
2022-11-21T13:24:41.771Z,53.1
2022-11-21T13:25:42.990Z,53.2
2022-11-21T13:26:44.924Z,53.2
2022-11-21T13:27:46.913Z,53
2022-11-21T13:28:49.626Z,52.8
2022-11-21T13:29:50.920Z,52.8
2022-11-21T13:30:52.991Z,52.8
2022-11-21T13:31:54.761Z,53.1
2022-11-21T13:32:55.782Z,53.2
2022-11-21T13:33:56.809Z,52.4
2022-11-21T13:34:59.028Z,53.2
2022-11-21T13:36:00.878Z,53.4
2022-11-21T13:37:03.069Z,53.6
2022-11-21T13:38:05.044Z,53.7
2022-11-21T13:39:06.829Z,53.7
2022-11-21T13:40:09.128Z,53.6
2022-11-21T13:41:10.908Z,53.6
2022-11-21T13:42:17.217Z,53.8
2022-11-21T13:44:16.900Z,54.1
2022-11-21T13:45:18.976Z,54.2
2022-11-21T13:46:21.161Z,54.2
2022-11-21T13:47:22.959Z,54.3
2022-11-21T13:48:24.809Z,54.4
2022-11-21T13:49:27.159Z,54.4
2022-11-21T13:50:29.129Z,55
2022-11-21T13:51:33.587Z,55.1
2022-11-21T13:52:34.968Z,55
2022-11-21T13:53:36.821Z,55
2022-11-21T13:54:39.103Z,55